Impacts TAF Board
For situational awareness. Not to be used for flight planning purposes.
IDs:

KGPT - Gulfport-Biloxi Intl, MS, US

Issued at 1335 UTC 01 Mar 2021
Updated at 1554 UTC 01 Mar 2021
Potential Impact None Slight Moderate High
Time<<02/16Z 02/17Z 02/18Z 02/19Z 02/20Z 02/21Z 02/22Z 02/23Z 03/00Z 03/01Z 03/02Z 03/03Z 03/04Z
Type
VIS
CIG
Cover
FltCat
WX
WDir
WSpd
WGst
Raw TAF
KGPT 011335Z 0114/0212 00000KT 4SM BR SCT002 SCT006 OVC100
  FM011600 VRB04KT P6SM BKN045
  FM012100 03012KT P6SM -SHRA BKN025
  FM020000 04012G20KT P6SM -SHRA OVC045
  FM020700 04010G18KT P6SM -SHRA OVC015


METAR Board
Radar Display
Forecast Discussion
For situational awareness. Not to be used for flight planning purposes.